Edleb, Syria

7:48 PM EEST on July 10, 2014 (GMT +0300)
Bassel Al-Assad International (OSLK) Elev 154 ft | 35.40 °N, 35.95 °E | Change Station

Current weather conditions updated 48 minutes ago

Clear
Clear
82 °F
Feels Like 86 °F
N
7
Wind Variable Wind from SW

Tomorrow is forecast to be Warmer than today.

Today
High -- | Low -- °F
--% Chance of Precip.
Yesterday
High -- | Low -- °F
Precip. -- in
5:25 AM 7:52 PM
Waxing Gibbous, 95% visible
Pressure 29.74 in
Visibility -9999.0 miles
Clouds
Heat Index 86 °F
Dew Point 70 °F
Humidity 66%
Rainfall 0.00 in
Snow Depth Not available.
UV Not available.
Pollen Not available.
Air Quality Not available.
Flu Activity Not available.
METAR OSLK 101600Z 22006KT CAVOK 28/21 Q1007

More Conditions Fewer Conditions

Pressure 29.74 in
Visibility -9999.0 miles
Clouds
Heat Index 86 °F
Dew Point 70 °F
Humidity 66%
Rainfall 0.00 in
Snow Depth Not available.
UV Not available.
Pollen Not available.
Air Quality Not available.
Flu Activity Not available.
METAR OSLK 101600Z 22006KT CAVOK 28/21 Q1007

More Conditions Fewer Conditions

10-Day Weather Forecast

Almanac

Astronomy

Jul. 10, 2014 Rise Set
Actual Time 5:25 AM EEST 7:52 PM EEST
Civil Twilight 4:55 AM EEST 8:22 PM EEST
Nautical Twilight 4:18 AM EEST 8:58 PM EEST
Astronomical Twilight 3:38 AM EEST 9:39 PM EEST
Moon 5:45 PM EEST 3:14 AM EEST
Length of Visible Light 15h 26m
Length of Day
14h 27m
Tomorrow will be 0m 56s shorter.
Waxing Gibbous, 95% of the Moon is Illuminated
Today
Waxing Gibbous
Jul 12
Full
Jul 18
Last Quarter
Jul 26
New
Aug 3
First Quarter

Today's Extremes

Country Highs Country Lows

Community

WunderPhotos

Upload Photos

1,732,191 photos uploaded!

WunderBlogs® & News

Nearby

Snow Depth

Not available.

Earthquake Activity

City Distance Mag. Time & Date
No recent earthquake activity has been reported nearby.
Minimum magnitude displayed is 2.5.

Coastal Water Temperatures

Place Temperature
No Stations Reporting

Nearby Weather Stations

There are no personal weather stations in this area.